Terminal Aerodrome Forecast
Issued by NWS Sioux Falls, SD

Home | Current Version | Previous Version | Text Only | Print | Product List | Glossary On
Versions: 1 2 3 4 5 6 7 8 9 10 11 12 13 14 15 16 17 18
000
FTUS43 KFSD 251928 AAA
TAFHON
TAF AMD
KHON 251928Z 2519/2618 08012KT P6SM SCT022 OVC035
     FM260300 09007KT P6SM BKN035
     FM260800 11006KT P6SM SCT035
      TEMPO 2609/2613 4SM BR
     FM261400 13011KT P6SM SCT035=

USA.gov is the U.S. government's official web portal to all federal, state and local government web resources and services.